Time;durP1;ratioP1;P1;durP2;ratioP2;P2;SDS_P1;SDS_P2;PMS_P1;PMS_P2;Temp;Humidity;BMP_temperature;BMP_pressure;BME280_temperature;BME280_humidity;BME280_pressure;Samples;Min_cycle;Max_cycle;Signal;HPM_P1;HPM_P2
2022/11/09 00:02:21;;;;;;;9.27;1.85;;;12.70;99.90;;;;;;5090573;28;20452;-76
2022/11/09 00:04:46;;;;;;;11.35;2.17;;;12.70;99.90;;;;;;5079960;28;20027;-76
2022/11/09 00:07:12;;;;;;;11.02;2.55;;;12.70;99.90;;;;;;5091867;28;20020;-77
2022/11/09 00:09:38;;;;;;;13.52;2.85;;;12.70;99.90;;;;;;5083698;28;20046;-77
2022/11/09 00:12:04;;;;;;;12.10;2.60;;;12.70;99.90;;;;;;5091122;28;20134;-76
2022/11/09 00:14:30;;;;;;;16.95;3.08;;;12.80;99.90;;;;;;5092744;28;20355;-77
2022/11/09 00:16:56;;;;;;;10.25;2.25;;;12.70;99.90;;;;;;5090474;28;20016;-77
2022/11/09 00:19:22;;;;;;;13.90;2.88;;;12.70;99.90;;;;;;5079149;28;20030;-77
2022/11/09 00:21:48;;;;;;;12.43;2.45;;;12.70;99.90;;;;;;5092489;28;20051;-77
2022/11/09 00:24:14;;;;;;;10.70;2.60;;;12.60;99.90;;;;;;5094642;28;20056;-76
2022/11/09 00:26:40;;;;;;;11.15;2.85;;;12.60;99.90;;;;;;5078273;28;20032;-77
2022/11/09 00:29:05;;;;;;;8.27;1.88;;;12.60;99.90;;;;;;5096977;28;20077;-78
2022/11/09 00:31:31;;;;;;;7.53;2.50;;;12.50;99.90;;;;;;5095043;28;20077;-77
2022/11/09 00:33:57;;;;;;;7.95;3.15;;;12.50;99.90;;;;;;5092554;28;20085;-77
2022/11/09 00:36:25;;;;;;;12.85;2.55;;;12.40;99.90;;;;;;5096771;28;20021;-77
2022/11/09 00:38:58;;;;;;;9.35;2.05;;;12.40;99.90;;;;;;5095640;28;20031;-78
2022/11/09 00:41:25;;;;;;;11.95;2.58;;;12.40;99.90;;;;;;5095308;28;20016;-78
2022/11/09 00:43:51;;;;;;;10.30;2.72;;;12.40;99.90;;;;;;5092311;28;20036;-78
2022/11/09 00:46:18;;;;;;;12.23;2.92;;;12.40;99.90;;;;;;5096195;28;20100;-75
2022/11/09 00:48:44;;;;;;;9.90;2.22;;;12.30;99.90;;;;;;5093521;28;20024;-77
2022/11/09 00:51:10;;;;;;;9.55;2.28;;;12.30;99.90;;;;;;5111767;28;20046;-78
2022/11/09 00:53:36;;;;;;;10.05;2.50;;;12.30;99.90;;;;;;5095514;28;20016;-78
2022/11/09 00:56:05;;;;;;;9.90;2.47;;;12.30;99.90;;;;;;5095915;28;20145;-79
2022/11/09 00:58:33;;;;;;;10.38;2.55;;;12.40;99.90;;;;;;5096039;28;20024;-77
2022/11/09 01:01:05;;;;;;;10.77;2.40;;;12.30;99.90;;;;;;5091835;28;20375;-78
2022/11/09 01:03:30;;;;;;;9.93;2.53;;;12.30;99.90;;;;;;5079757;28;20035;-78
2022/11/09 01:05:58;;;;;;;12.00;2.60;;;12.30;99.90;;;;;;5093058;28;20028;-78
2022/11/09 01:08:24;;;;;;;8.68;1.95;;;12.30;99.90;;;;;;5094020;28;20112;-78
2022/11/09 01:10:50;;;;;;;8.50;2.00;;;12.40;99.90;;;;;;5095989;28;20116;-79
2022/11/09 01:13:17;;;;;;;13.88;2.50;;;12.40;99.90;;;;;;5090443;28;20455;-80
2022/11/09 01:15:48;;;;;;;21.83;3.63;;;12.40;99.90;;;;;;5086391;28;20024;-78
2022/11/09 01:18:15;;;;;;;12.35;2.85;;;12.40;99.90;;;;;;5088364;28;20024;-79
2022/11/09 01:20:42;;;;;;;12.38;2.50;;;12.40;99.90;;;;;;5090145;28;20024;-80
2022/11/09 01:23:13;;;;;;;7.88;1.90;;;12.40;99.90;;;;;;5080152;28;20065;-78
2022/11/09 01:25:39;;;;;;;15.10;2.70;;;12.40;99.90;;;;;;5095253;28;20027;-77
2022/11/09 01:28:06;;;;;;;12.02;2.20;;;12.30;99.90;;;;;;5083659;28;20029;-77
2022/11/09 01:30:41;;;;;;;11.80;2.28;;;12.40;99.90;;;;;;5094061;28;20035;-78
2022/11/09 01:33:09;;;;;;;10.20;2.38;;;12.40;99.90;;;;;;5076985;28;20087;-76
2022/11/09 01:35:36;;;;;;;8.25;2.15;;;12.40;99.90;;;;;;5092337;28;20065;-76
2022/11/09 01:38:03;;;;;;;9.43;1.85;;;12.40;99.90;;;;;;5095335;28;20023;-76
2022/11/09 01:40:30;;;;;;;13.60;3.03;;;12.40;99.90;;;;;;5095121;28;20031;-76
2022/11/09 01:42:56;;;;;;;13.98;3.40;;;12.40;99.90;;;;;;5094875;28;20120;-76
2022/11/09 01:45:29;;;;;;;9.80;1.80;;;12.40;99.90;;;;;;5095376;28;20026;-78
2022/11/09 01:48:07;;;;;;;15.50;3.78;;;12.30;99.90;;;;;;5095866;28;20353;-79
2022/11/09 01:50:52;;;;;;;19.65;5.40;;;12.40;99.90;;;;;;5085546;28;20032;-79
2022/11/09 01:53:24;;;;;;;16.05;3.63;;;12.40;99.90;;;;;;5093746;28;20020;-79
2022/11/09 01:55:54;;;;;;;10.40;2.85;;;12.40;99.90;;;;;;5085205;28;20031;-77
2022/11/09 01:58:27;;;;;;;10.38;2.00;;;12.30;99.90;;;;;;5089035;28;20023;-78
2022/11/09 02:00:55;;;;;;;16.38;3.60;;;12.40;99.90;;;;;;5078548;28;20467;-77
2022/11/09 02:03:32;;;;;;;17.73;4.35;;;12.30;99.90;;;;;;5094357;28;20020;-77
2022/11/09 02:06:01;;;;;;;10.40;2.55;;;12.30;99.90;;;;;;5087672;28;20372;-76
2022/11/09 02:08:27;;;;;;;11.35;1.83;;;12.30;99.90;;;;;;5087090;28;20020;-76
2022/11/09 02:11:04;;;;;;;17.88;3.40;;;12.40;99.90;;;;;;5092660;28;20035;-77
2022/11/09 02:13:31;;;;;;;23.17;7.05;;;12.30;99.90;;;;;;5085032;28;20016;-80
2022/11/09 02:15:57;;;;;;;19.35;5.13;;;12.40;99.90;;;;;;5085916;28;20020;-76
2022/11/09 02:18:23;;;;;;;19.63;5.47;;;12.40;99.90;;;;;;5094764;28;20028;-78
2022/11/09 02:20:55;;;;;;;14.10;4.03;;;12.40;99.90;;;;;;5077783;28;20131;-78
2022/11/09 02:23:20;;;;;;;17.95;2.90;;;12.50;99.90;;;;;;5088274;28;20352;-77
2022/11/09 02:26:09;;;;;;;12.65;2.90;;;12.50;99.90;;;;;;5095058;28;20028;-79
2022/11/09 02:28:39;;;;;;;10.77;2.63;;;12.40;99.90;;;;;;5090014;28;20036;-77
2022/11/09 02:31:09;;;;;;;17.20;3.20;;;12.40;99.90;;;;;;5086380;28;20101;-77
2022/11/09 02:34:00;;;;;;;14.63;2.25;;;12.50;99.90;;;;;;5095240;28;20039;-77
2022/11/09 02:36:26;;;;;;;9.13;2.08;;;12.50;99.90;;;;;;5089656;28;20444;-78
2022/11/09 02:38:54;;;;;;;13.20;4.43;;;12.50;99.90;;;;;;5088079;28;20027;-80
2022/11/09 02:41:21;;;;;;;18.25;4.50;;;12.50;99.90;;;;;;5086661;28;20031;-80
2022/11/09 02:43:48;;;;;;;12.70;2.20;;;12.60;99.90;;;;;;5092738;28;20046;-78
2022/11/09 02:46:22;;;;;;;16.88;3.03;;;12.60;99.90;;;;;;5083518;28;20017;-79
2022/11/09 02:48:48;;;;;;;25.70;5.78;;;12.60;99.90;;;;;;5087994;28;20409;-78
2022/11/09 02:51:13;;;;;;;13.15;2.08;;;12.60;99.90;;;;;;5092755;28;20093;-78
2022/11/09 02:53:39;;;;;;;13.82;2.15;;;12.50;99.90;;;;;;5091343;28;20028;-79
2022/11/09 02:56:05;;;;;;;14.32;2.88;;;12.50;99.90;;;;;;5086750;28;20123;-77
2022/11/09 02:58:31;;;;;;;14.07;3.88;;;12.50;99.90;;;;;;5090143;28;20436;-78
2022/11/09 03:00:57;;;;;;;12.35;2.63;;;12.50;99.90;;;;;;5086395;28;20030;-77
2022/11/09 03:03:22;;;;;;;11.73;2.95;;;12.50;99.90;;;;;;5093719;28;20026;-79
2022/11/09 03:05:48;;;;;;;14.68;2.47;;;12.60;99.90;;;;;;5091081;28;20528;-78
2022/11/09 03:08:13;;;;;;;13.35;3.17;;;12.60;99.90;;;;;;5093742;28;20024;-77
2022/11/09 03:10:39;;;;;;;11.55;2.80;;;12.60;99.90;;;;;;5093469;28;20027;-81
2022/11/09 03:13:04;;;;;;;18.67;4.30;;;12.60;99.90;;;;;;5087988;28;20020;-81
2022/11/09 03:15:30;;;;;;;18.27;4.22;;;12.50;99.90;;;;;;5093654;28;20069;-76
2022/11/09 03:17:55;;;;;;;11.75;2.45;;;12.50;99.90;;;;;;5090824;28;20024;-77
2022/11/09 03:20:21;;;;;;;18.58;4.70;;;12.50;99.90;;;;;;5090948;28;20031;-77
2022/11/09 03:22:46;;;;;;;16.55;2.45;;;12.50;99.90;;;;;;5089253;28;20016;-77
2022/11/09 03:25:12;;;;;;;14.85;2.72;;;12.50;99.90;;;;;;5090573;28;20349;-80
2022/11/09 03:27:38;;;;;;;10.63;2.83;;;12.50;99.90;;;;;;5093449;28;20506;-76
2022/11/09 03:30:03;;;;;;;19.05;4.40;;;12.40;99.90;;;;;;5090252;28;20043;-76
2022/11/09 03:32:29;;;;;;;12.93;2.67;;;12.40;99.90;;;;;;5080214;28;20023;-78
2022/11/09 03:34:55;;;;;;;12.23;2.13;;;12.40;99.90;;;;;;5087975;28;20550;-75
2022/11/09 03:37:21;;;;;;;16.45;3.80;;;12.30;99.90;;;;;;5092865;28;20134;-77
2022/11/09 03:39:46;;;;;;;14.88;2.88;;;12.30;99.90;;;;;;5090310;28;20103;-75
2022/11/09 03:42:12;;;;;;;10.00;1.85;;;12.30;99.90;;;;;;5092634;28;20116;-76
2022/11/09 03:44:37;;;;;;;11.88;2.33;;;12.20;99.90;;;;;;5088087;28;20055;-75
2022/11/09 03:47:03;;;;;;;8.57;2.50;;;12.30;99.90;;;;;;5089765;28;20016;-76
2022/11/09 03:49:28;;;;;;;16.55;3.00;;;12.30;99.90;;;;;;5075887;28;20063;-76
2022/11/09 03:51:54;;;;;;;14.38;2.95;;;12.30;99.90;;;;;;5075809;28;20031;-75
2022/11/09 03:54:19;;;;;;;15.27;2.80;;;12.30;99.90;;;;;;5075873;28;20090;-75
2022/11/09 03:56:45;;;;;;;14.30;2.63;;;12.30;99.90;;;;;;5083897;28;20022;-75
2022/11/09 03:59:11;;;;;;;13.27;2.63;;;12.40;99.90;;;;;;5083982;28;20413;-75
2022/11/09 04:01:36;;;;;;;7.03;1.90;;;12.40;99.90;;;;;;5090418;28;20108;-76
2022/11/09 04:04:02;;;;;;;9.68;2.50;;;12.40;99.90;;;;;;5087277;28;20090;-77
2022/11/09 04:06:28;;;;;;;16.00;2.92;;;12.40;99.90;;;;;;5093063;28;20027;-77
2022/11/09 04:08:53;;;;;;;18.05;2.78;;;12.50;99.90;;;;;;5090649;28;20035;-77
2022/11/09 04:11:19;;;;;;;21.02;3.30;;;12.50;99.90;;;;;;5089504;28;20428;-78
2022/11/09 04:13:46;;;;;;;21.90;3.78;;;12.50;99.90;;;;;;5075666;28;20020;-78
2022/11/09 04:16:11;;;;;;;15.90;2.85;;;12.50;99.90;;;;;;5085668;28;20061;-75
2022/11/09 04:18:37;;;;;;;11.98;2.40;;;12.50;99.90;;;;;;5092939;28;20367;-75
2022/11/09 04:21:02;;;;;;;15.52;3.75;;;12.50;99.90;;;;;;5086611;28;20480;-74
2022/11/09 04:23:28;;;;;;;12.80;2.50;;;12.40;99.90;;;;;;5088238;28;20023;-75
2022/11/09 04:25:56;;;;;;;15.52;3.30;;;12.40;99.90;;;;;;5075243;28;20330;-74
2022/11/09 04:28:22;;;;;;;14.45;2.67;;;12.40;99.90;;;;;;5075396;28;20094;-74
2022/11/09 04:30:47;;;;;;;13.80;3.10;;;12.30;99.90;;;;;;5076734;28;20429;-75
2022/11/09 04:33:13;;;;;;;5.22;1.65;;;12.30;99.90;;;;;;5083958;28;20031;-75
2022/11/09 04:35:38;;;;;;;9.68;2.65;;;12.20;99.90;;;;;;5089565;28;20132;-76
2022/11/09 04:38:11;;;;;;;10.07;2.47;;;12.20;99.90;;;;;;5087757;28;20044;-76
2022/11/09 04:40:38;;;;;;;12.05;2.10;;;12.10;99.90;;;;;;5092786;28;20020;-76
2022/11/09 04:43:05;;;;;;;12.82;2.30;;;12.00;99.90;;;;;;5087108;28;20047;-77
2022/11/09 04:45:33;;;;;;;8.68;1.70;;;12.00;99.90;;;;;;5089940;28;20055;-77
2022/11/09 04:48:04;;;;;;;13.13;2.95;;;11.90;99.90;;;;;;5089724;28;20050;-78
2022/11/09 04:50:30;;;;;;;10.43;2.53;;;11.80;99.90;;;;;;5089812;28;20036;-77
2022/11/09 04:53:14;;;;;;;10.73;1.77;;;11.80;99.90;;;;;;5090457;28;20031;-77
2022/11/09 04:55:40;;;;;;;9.43;2.00;;;11.80;99.90;;;;;;5081082;28;20083;-78
2022/11/09 04:58:06;;;;;;;16.55;3.03;;;11.80;99.90;;;;;;5089801;28;20051;-79
2022/11/09 05:00:32;;;;;;;11.15;1.80;;;11.70;99.90;;;;;;5087924;28;20100;-79
2022/11/09 05:03:00;;;;;;;11.30;2.28;;;11.70;99.90;;;;;;5091573;28;20048;-77
2022/11/09 05:05:26;;;;;;;12.35;1.90;;;11.80;99.90;;;;;;5089215;28;20459;-78
2022/11/09 05:07:51;;;;;;;9.77;2.28;;;11.70;99.90;;;;;;5092865;28;20563;-77
2022/11/09 05:10:17;;;;;;;10.48;2.33;;;11.70;99.90;;;;;;5092489;28;20111;-77
2022/11/09 05:12:42;;;;;;;9.40;1.58;;;11.70;99.90;;;;;;5082248;28;20372;-76
2022/11/09 05:15:08;;;;;;;11.45;2.25;;;11.70;99.90;;;;;;5080385;28;20099;-76
2022/11/09 05:17:34;;;;;;;11.05;2.05;;;11.70;99.90;;;;;;5078648;28;20017;-76
2022/11/09 05:19:59;;;;;;;11.15;2.38;;;11.70;99.90;;;;;;5078614;28;20052;-76
2022/11/09 05:25:09;;;;;;;3.17;1.52;;;11.60;99.90;;;;;;5094239;28;20073;-76
2022/11/09 05:27:36;;;;;;;13.70;2.95;;;11.60;99.90;;;;;;5089782;28;20028;-76
2022/11/09 05:30:02;;;;;;;10.40;2.50;;;11.60;99.90;;;;;;5093161;28;20456;-76
2022/11/09 05:32:28;;;;;;;8.73;2.10;;;11.60;99.90;;;;;;5091071;28;20069;-77
2022/11/09 05:34:54;;;;;;;7.82;2.38;;;11.60;99.90;;;;;;5089990;28;20012;-76
2022/11/09 05:37:21;;;;;;;9.82;1.70;;;11.60;99.90;;;;;;5091616;28;20021;-76
2022/11/09 05:39:46;;;;;;;10.95;2.65;;;11.60;99.90;;;;;;5092436;28;20024;-77
2022/11/09 05:42:12;;;;;;;10.13;2.40;;;11.60;99.90;;;;;;5095074;28;20047;-76
2022/11/09 05:44:40;;;;;;;9.52;2.47;;;11.60;99.90;;;;;;5094573;28;20026;-76
2022/11/09 05:47:09;;;;;;;4.03;1.40;;;11.60;99.90;;;;;;5089361;28;20371;-76
2022/11/09 05:49:34;;;;;;;15.32;2.70;;;11.60;99.90;;;;;;5096070;28;20034;-77
2022/11/09 05:52:00;;;;;;;7.93;2.13;;;11.60;99.90;;;;;;5086478;28;20383;-77
2022/11/09 05:54:25;;;;;;;7.85;2.15;;;11.60;99.90;;;;;;5087059;28;20026;-78
2022/11/09 05:56:51;;;;;;;6.57;1.60;;;11.60;99.90;;;;;;5079830;28;20032;-78
2022/11/09 05:59:16;;;;;;;14.70;2.53;;;11.60;99.90;;;;;;5094209;28;20024;-76
2022/11/09 06:01:42;;;;;;;13.95;2.83;;;11.60;99.90;;;;;;5089636;28;20025;-76
2022/11/09 06:04:07;;;;;;;14.30;2.35;;;11.60;99.90;;;;;;5095424;28;20358;-77
2022/11/09 06:06:36;;;;;;;10.82;2.05;;;11.60;99.90;;;;;;5095234;28;20451;-76
2022/11/09 06:09:01;;;;;;;6.85;1.95;;;11.60;99.90;;;;;;5078886;28;20029;-77
2022/11/09 06:11:27;;;;;;;10.52;2.22;;;11.60;99.90;;;;;;5091487;28;20171;-75
2022/11/09 06:13:53;;;;;;;13.02;2.45;;;11.60;99.90;;;;;;5082951;28;20104;-76
2022/11/09 06:16:19;;;;;;;12.55;2.70;;;11.60;99.90;;;;;;5095293;28;20103;-74
2022/11/09 06:18:45;;;;;;;10.05;2.25;;;11.50;99.90;;;;;;5089912;28;20031;-77
2022/11/09 06:21:10;;;;;;;9.07;2.28;;;11.60;99.90;;;;;;5094778;28;20024;-76
2022/11/09 06:23:36;;;;;;;14.95;3.22;;;11.50;99.90;;;;;;5090305;28;20064;-79
2022/11/09 06:26:06;;;;;;;17.20;6.13;;;11.50;99.90;;;;;;5083805;28;20095;-77
2022/11/09 06:28:33;;;;;;;12.80;2.38;;;11.50;99.90;;;;;;5081585;28;20390;-76
2022/11/09 06:31:00;;;;;;;12.73;2.03;;;11.50;99.90;;;;;;5091545;28;20081;-78
2022/11/09 06:33:28;;;;;;;11.32;2.67;;;11.50;99.90;;;;;;5090502;28;20012;-75
2022/11/09 06:35:56;;;;;;;10.80;2.05;;;11.50;99.90;;;;;;5093428;28;20020;-76
2022/11/09 06:38:21;;;;;;;14.48;3.83;;;11.50;99.90;;;;;;5094953;28;20031;-76
2022/11/09 06:40:51;;;;;;;11.77;3.53;;;11.50;99.90;;;;;;5094675;28;20028;-76
2022/11/09 06:43:17;;;;;;;12.73;3.35;;;11.50;99.90;;;;;;5092198;28;20043;-76
2022/11/09 06:45:42;;;;;;;8.75;3.00;;;11.50;99.90;;;;;;5094187;28;20020;-76
2022/11/09 06:48:09;;;;;;;12.50;3.30;;;11.50;99.90;;;;;;5094742;28;20020;-77
2022/11/09 06:50:35;;;;;;;18.02;5.75;;;11.50;99.90;;;;;;5094446;28;20032;-77
2022/11/09 06:53:03;;;;;;;11.70;2.10;;;11.50;99.90;;;;;;5089222;28;20043;-76
2022/11/09 06:55:30;;;;;;;13.75;3.67;;;11.60;99.90;;;;;;5089951;28;20058;-76
2022/11/09 06:57:57;;;;;;;13.65;3.50;;;11.50;99.90;;;;;;5086547;28;20020;-76
2022/11/09 07:00:23;;;;;;;19.95;4.82;;;11.60;99.90;;;;;;5086118;28;20024;-76
2022/11/09 07:02:49;;;;;;;19.73;6.10;;;11.60;99.90;;;;;;5078709;28;20389;-75
2022/11/09 07:05:15;;;;;;;13.32;2.40;;;11.60;99.90;;;;;;5092233;28;20043;-75
2022/11/09 07:07:40;;;;;;;21.90;6.07;;;11.60;99.90;;;;;;5092832;28;20440;-74
2022/11/09 07:10:06;;;;;;;17.95;3.65;;;11.60;99.90;;;;;;5089138;28;20064;-76
2022/11/09 07:12:34;;;;;;;7.57;1.88;;;11.60;99.90;;;;;;5093682;28;20062;-74
2022/11/09 07:15:00;;;;;;;17.17;3.92;;;11.60;99.90;;;;;;5094193;28;20057;-74
2022/11/09 07:17:25;;;;;;;9.82;2.75;;;11.60;99.90;;;;;;5077779;28;20012;-75
2022/11/09 07:19:51;;;;;;;11.20;2.63;;;11.70;99.90;;;;;;5086617;28;20472;-75
2022/11/09 07:22:16;;;;;;;13.13;2.72;;;11.70;99.90;;;;;;5084610;28;20169;-75
2022/11/09 07:24:42;;;;;;;9.57;1.92;;;11.70;99.90;;;;;;5093962;28;20402;-74
2022/11/09 07:27:08;;;;;;;11.80;2.80;;;11.80;99.90;;;;;;5093486;28;20024;-75
2022/11/09 07:29:33;;;;;;;9.13;2.13;;;11.80;99.90;;;;;;5088960;28;20028;-75
2022/11/09 07:31:59;;;;;;;18.58;3.47;;;11.80;99.90;;;;;;5081626;28;20113;-75
2022/11/09 07:34:24;;;;;;;9.60;2.03;;;11.80;99.90;;;;;;5082866;28;20021;-74
2022/11/09 07:36:53;;;;;;;14.52;3.35;;;11.80;99.90;;;;;;5093750;28;20448;-76
2022/11/09 07:39:18;;;;;;;10.75;2.78;;;11.80;99.90;;;;;;5092059;28;20032;-76
2022/11/09 07:41:47;;;;;;;11.02;3.65;;;11.80;99.90;;;;;;5093368;28;20013;-75
2022/11/09 07:44:16;;;;;;;8.60;1.98;;;11.80;99.90;;;;;;5093339;28;20032;-74
2022/11/09 07:46:43;;;;;;;10.43;3.00;;;11.90;99.90;;;;;;5093891;28;20450;-75
2022/11/09 07:49:08;;;;;;;17.55;4.10;;;11.90;99.90;;;;;;5076331;28;20070;-75
2022/11/09 07:51:34;;;;;;;8.98;1.98;;;11.90;99.90;;;;;;5088442;28;20016;-74
2022/11/09 07:54:00;;;;;;;12.65;2.80;;;12.00;99.90;;;;;;5085149;28;20360;-73
2022/11/09 07:56:25;;;;;;;13.27;3.80;;;12.10;99.90;;;;;;5093267;28;20035;-74
2022/11/09 07:58:51;;;;;;;10.80;3.10;;;12.10;99.90;;;;;;5093798;28;20024;-74
2022/11/09 08:01:16;;;;;;;13.95;2.53;;;12.10;99.90;;;;;;5080104;28;20461;-74
2022/11/09 08:03:42;;;;;;;13.98;4.00;;;12.20;99.90;;;;;;5072017;28;20040;-74
2022/11/09 08:06:07;;;;;;;13.55;3.75;;;12.20;99.90;;;;;;5093020;28;20466;-74
2022/11/09 08:08:33;;;;;;;8.55;2.03;;;12.20;99.90;;;;;;5089373;28;21639;-74
2022/11/09 08:10:58;;;;;;;15.75;4.13;;;12.20;99.90;;;;;;5087395;28;20120;-75
2022/11/09 08:13:24;;;;;;;14.75;3.92;;;12.30;99.90;;;;;;5086517;28;20090;-75
2022/11/09 08:15:50;;;;;;;9.57;2.53;;;12.30;99.90;;;;;;5073318;28;20092;-75
2022/11/09 08:18:18;;;;;;;17.20;2.92;;;12.40;99.90;;;;;;5073352;28;20027;-74
2022/11/09 08:20:44;;;;;;;11.35;2.75;;;12.50;99.90;;;;;;5070682;28;20478;-75
2022/11/09 08:23:12;;;;;;;10.02;2.28;;;12.50;99.90;;;;;;5088312;28;20020;-75
2022/11/09 08:25:38;;;;;;;17.63;3.78;;;12.60;99.90;;;;;;5072309;28;20025;-75
2022/11/09 08:28:03;;;;;;;13.32;3.70;;;12.70;99.90;;;;;;5087158;28;20162;-75
2022/11/09 08:30:30;;;;;;;9.10;1.88;;;12.80;99.90;;;;;;5081590;28;20063;-75
2022/11/09 08:32:57;;;;;;;12.15;2.30;;;12.90;99.90;;;;;;5091262;28;20077;-74
2022/11/09 08:35:24;;;;;;;12.07;2.92;;;12.90;99.90;;;;;;5077442;28;20101;-74
2022/11/09 08:37:51;;;;;;;12.68;2.33;;;12.90;99.90;;;;;;5072330;28;20055;-74
2022/11/09 08:40:19;;;;;;;13.93;3.50;;;12.90;99.90;;;;;;5071482;28;20017;-74
2022/11/09 08:42:44;;;;;;;8.73;2.20;;;12.90;99.90;;;;;;5072688;28;20102;-74
2022/11/09 08:45:10;;;;;;;9.43;2.10;;;13.00;99.90;;;;;;5074115;28;20020;-75
2022/11/09 08:47:37;;;;;;;10.55;1.90;;;13.00;99.90;;;;;;5076978;28;20065;-74
2022/11/09 08:50:04;;;;;;;7.90;2.40;;;13.10;99.90;;;;;;5076624;28;20111;-74
2022/11/09 08:52:30;;;;;;;13.13;2.53;;;13.10;99.90;;;;;;5076338;28;20021;-73
2022/11/09 08:54:56;;;;;;;13.50;3.20;;;13.20;99.90;;;;;;5080485;28;20043;-76
2022/11/09 08:57:22;;;;;;;10.30;1.98;;;13.40;99.90;;;;;;5090860;28;20016;-75
2022/11/09 08:59:48;;;;;;;11.48;2.50;;;13.50;99.90;;;;;;5088839;28;20036;-76
2022/11/09 09:02:14;;;;;;;8.20;2.50;;;13.50;99.90;;;;;;5096891;28;20024;-76
2022/11/09 09:04:40;;;;;;;10.68;2.83;;;13.70;99.90;;;;;;5088960;28;20035;-76
2022/11/09 09:07:06;;;;;;;9.80;2.55;;;13.90;99.90;;;;;;5107227;28;20040;-76
2022/11/09 09:09:33;;;;;;;11.23;1.90;;;14.10;99.90;;;;;;5099014;28;20028;-75
2022/11/09 09:11:59;;;;;;;9.38;2.30;;;14.10;99.90;;;;;;5101181;28;20027;-76
2022/11/09 09:14:24;;;;;;;14.15;3.05;;;14.20;99.90;;;;;;5106786;28;20019;-74
2022/11/09 09:16:50;;;;;;;9.15;2.50;;;14.30;99.90;;;;;;5105289;28;20433;-75
2022/11/09 09:19:16;;;;;;;10.48;2.88;;;14.50;99.90;;;;;;5103832;28;20099;-74
2022/11/09 09:21:41;;;;;;;14.52;2.70;;;14.70;99.90;;;;;;5098547;28;20015;-74
2022/11/09 09:24:07;;;;;;;13.02;2.58;;;15.10;99.90;;;;;;5104084;28;20074;-74
2022/11/09 09:26:33;;;;;;;15.43;4.13;;;15.40;99.90;;;;;;5096993;28;20021;-75
2022/11/09 09:28:58;;;;;;;9.80;2.13;;;15.60;99.90;;;;;;5107394;28;20114;-75
2022/11/09 09:31:24;;;;;;;10.95;3.25;;;16.00;99.90;;;;;;5103176;28;20054;-74
2022/11/09 09:33:49;;;;;;;10.77;2.38;;;15.90;99.90;;;;;;5106007;28;20060;-75
2022/11/09 09:36:20;;;;;;;12.38;3.00;;;15.60;99.90;;;;;;5095628;28;20024;-75
2022/11/09 09:38:49;;;;;;;13.05;2.45;;;15.40;99.90;;;;;;5095971;28;20031;-75
2022/11/09 09:41:21;;;;;;;16.70;2.35;;;15.40;99.90;;;;;;5094994;28;20020;-75
2022/11/09 09:43:49;;;;;;;16.48;3.20;;;15.40;99.90;;;;;;5095949;28;20379;-76
2022/11/09 09:46:30;;;;;;;7.18;2.25;;;15.30;99.90;;;;;;5095231;28;20012;-73
2022/11/09 09:49:25;;;;;;;13.73;4.03;;;15.30;99.90;;;;;;5096010;28;21980;-73
2022/11/09 09:52:00;;;;;;;21.23;4.70;;;15.10;99.90;;;;;;5089809;28;20124;-73
2022/11/09 09:54:32;;;;;;;14.15;3.28;;;14.90;99.90;;;;;;5078050;28;20032;-76
2022/11/09 09:57:00;;;;;;;20.45;4.30;;;14.70;99.90;;;;;;5094802;28;20016;-72
2022/11/09 09:59:40;;;;;;;9.52;2.92;;;14.40;99.90;;;;;;5095020;28;20027;-74
2022/11/09 10:02:23;;;;;;;17.80;4.13;;;14.00;99.90;;;;;;5095242;28;20024;-73
2022/11/09 10:04:50;;;;;;;18.92;3.95;;;13.80;99.90;;;;;;5089220;28;20095;-74
2022/11/09 10:07:49;;;;;;;20.80;4.40;;;13.50;99.90;;;;;;5086763;28;20020;-75
2022/11/09 10:11:02;;;;;;;15.38;4.55;;;13.40;99.90;;;;;;5093202;28;20036;-75
2022/11/09 10:14:06;;;;;;;10.98;2.83;;;13.20;99.90;;;;;;5091980;28;20116;-76
2022/11/09 10:16:47;;;;;;;13.40;3.33;;;13.20;99.90;;;;;;5056609;28;20111;-76
2022/11/09 10:19:47;;;;;;;10.43;3.33;;;13.20;99.90;;;;;;5075151;28;20027;-76
2022/11/09 10:22:21;;;;;;;14.63;3.25;;;13.30;99.90;;;;;;5092545;28;20039;-75
2022/11/09 10:25:11;;;;;;;10.65;2.67;;;13.30;99.90;;;;;;5095768;28;20020;-76
2022/11/09 10:27:44;;;;;;;11.10;2.55;;;13.30;99.90;;;;;;5095559;28;20428;-76
2022/11/09 10:30:14;;;;;;;18.55;3.97;;;13.20;99.90;;;;;;5094997;28;20032;-76
2022/11/09 10:32:42;;;;;;;6.32;2.03;;;13.30;99.90;;;;;;5095007;28;20077;-76
2022/11/09 10:35:19;;;;;;;12.90;3.20;;;13.30;99.90;;;;;;5095102;28;20020;-76
2022/11/09 10:37:48;;;;;;;15.00;4.00;;;13.30;99.90;;;;;;5095328;28;20468;-75
2022/11/09 10:40:26;;;;;;;9.27;2.70;;;13.40;99.90;;;;;;5092068;28;20024;-75
2022/11/09 10:43:03;;;;;;;11.02;2.97;;;13.50;99.90;;;;;;5085315;28;21362;-76
2022/11/09 10:45:30;;;;;;;10.32;2.65;;;13.60;99.90;;;;;;5094480;28;20462;-75
2022/11/09 10:47:56;;;;;;;16.90;3.60;;;13.60;99.90;;;;;;5094097;28;20048;-76
2022/11/09 10:50:47;;;;;;;11.52;2.75;;;13.50;99.90;;;;;;5093785;28;20036;-76
2022/11/09 10:53:22;;;;;;;7.97;2.42;;;13.40;99.90;;;;;;5085670;28;20028;-75
2022/11/09 10:56:04;;;;;;;16.38;3.30;;;13.40;99.90;;;;;;5085502;28;20073;-75
2022/11/09 10:59:00;;;;;;;8.32;2.53;;;13.40;99.90;;;;;;5092032;28;20019;-76
2022/11/09 11:01:35;;;;;;;11.05;2.40;;;13.40;99.90;;;;;;5076608;28;20138;-74
2022/11/09 11:04:18;;;;;;;17.10;5.13;;;13.40;99.90;;;;;;5085175;28;20028;-74
2022/11/09 11:06:44;;;;;;;21.45;6.75;;;13.40;99.90;;;;;;5093751;28;20449;-72
2022/11/09 11:09:10;;;;;;;17.13;5.72;;;13.20;99.90;;;;;;5093828;28;20032;-73
2022/11/09 11:11:37;;;;;;;16.63;3.28;;;13.10;99.90;;;;;;5086543;28;20021;-73
2022/11/09 11:14:31;;;;;;;22.20;6.50;;;13.10;99.90;;;;;;5087597;28;20077;-73
2022/11/09 11:16:57;;;;;;;15.63;3.28;;;13.00;99.90;;;;;;5093415;28;20024;-73
2022/11/09 11:19:37;;;;;;;14.43;3.33;;;12.90;99.90;;;;;;5092099;28;20032;-74
2022/11/09 11:22:17;;;;;;;14.48;3.20;;;12.90;99.90;;;;;;5093720;28;20063;-75
2022/11/09 11:24:59;;;;;;;11.77;3.00;;;12.90;99.90;;;;;;5090390;28;20015;-76
2022/11/09 11:27:27;;;;;;;12.30;4.00;;;12.90;99.90;;;;;;5092591;28;20367;-76
2022/11/09 11:30:05;;;;;;;10.60;3.00;;;13.00;99.90;;;;;;5080125;28;20035;-77
2022/11/09 11:32:32;;;;;;;8.40;2.10;;;13.00;99.90;;;;;;5093265;28;20110;-77
2022/11/09 11:34:57;;;;;;;10.95;2.40;;;13.00;99.90;;;;;;5094413;28;20079;-76
2022/11/09 11:37:40;;;;;;;13.23;3.17;;;13.00;99.90;;;;;;5094195;28;20431;-76
2022/11/09 11:40:21;;;;;;;11.18;3.88;;;13.10;99.90;;;;;;5094090;28;20073;-76
2022/11/09 11:43:05;;;;;;;9.77;3.17;;;13.20;99.90;;;;;;5093258;28;20093;-75
2022/11/09 11:45:40;;;;;;;12.93;1.83;;;13.20;99.90;;;;;;5089716;28;20032;-76
2022/11/09 11:48:26;;;;;;;15.75;3.70;;;13.30;99.90;;;;;;5088082;28;20417;-76
2022/11/09 11:51:26;;;;;;;12.40;2.60;;;13.40;99.90;;;;;;5078008;28;20032;-76
2022/11/09 11:54:36;;;;;;;11.13;2.58;;;13.60;99.90;;;;;;5077188;28;20077;-74
2022/11/09 11:57:12;;;;;;;5.60;1.95;;;13.80;99.90;;;;;;5092288;28;20028;-73
2022/11/09 12:00:12;;;;;;;15.40;3.40;;;13.90;99.90;;;;;;5093529;28;20035;-74
2022/11/09 12:03:01;;;;;;;5.90;1.42;;;14.30;99.90;;;;;;5090979;28;20111;-75
2022/11/09 12:05:49;;;;;;;9.00;2.55;;;14.70;99.90;;;;;;5092370;28;20024;-74
2022/11/09 12:08:50;;;;;;;7.72;2.13;;;14.80;99.90;;;;;;5093003;28;20024;-73
2022/11/09 12:11:34;;;;;;;5.57;1.67;;;14.80;99.90;;;;;;5093784;28;20028;-73
2022/11/09 12:14:24;;;;;;;8.70;2.53;;;14.60;99.90;;;;;;5072987;28;20461;-73
2022/11/09 12:17:05;;;;;;;7.53;1.75;;;14.50;99.90;;;;;;5073460;28;20024;-75
2022/11/09 12:19:51;;;;;;;5.95;1.55;;;14.40;99.90;;;;;;5075993;28;20020;-75
2022/11/09 12:22:25;;;;;;;3.67;1.60;;;14.40;99.90;;;;;;5090489;28;20032;-73
2022/11/09 12:25:03;;;;;;;5.32;1.00;;;14.50;99.90;;;;;;5097298;28;20109;-72
2022/11/09 12:27:44;;;;;;;9.63;1.65;;;14.70;99.90;;;;;;5095080;28;20472;-74
2022/11/09 12:30:42;;;;;;;7.30;1.38;;;14.80;99.90;;;;;;5095174;28;20031;-72
2022/11/09 12:33:39;;;;;;;7.88;1.67;;;15.10;99.90;;;;;;5084639;28;20067;-74
2022/11/09 12:36:23;;;;;;;8.23;2.17;;;15.00;99.90;;;;;;5094754;28;20026;-74
2022/11/09 12:39:02;;;;;;;8.95;2.40;;;14.80;99.90;;;;;;5077152;28;20056;-72
2022/11/09 12:41:33;;;;;;;10.38;2.53;;;14.60;99.90;;;;;;5077315;28;20024;-73
2022/11/09 12:44:14;;;;;;;10.95;2.10;;;14.30;99.90;;;;;;5076739;28;20044;-73
2022/11/09 12:46:56;;;;;;;17.90;4.00;;;14.10;99.90;;;;;;5077403;28;20025;-71
2022/11/09 12:49:26;;;;;;;9.77;2.15;;;13.90;99.90;;;;;;5077444;28;20295;-73
2022/11/09 12:51:54;;;;;;;12.93;3.30;;;13.70;99.90;;;;;;5093801;28;20170;-72
2022/11/09 12:54:20;;;;;;;12.48;2.38;;;13.60;99.90;;;;;;5084061;28;20365;-71
2022/11/09 12:57:12;;;;;;;12.23;3.30;;;13.50;99.90;;;;;;5096360;28;20019;-71